createdAt,value
2022-09-01T02:59:13.218Z,100.00
2022-09-01T03:01:41.987Z,100.00
2022-09-01T03:04:13.463Z,100.00
2022-09-01T03:06:42.169Z,100.00
2022-09-01T03:09:14.846Z,100.00
2022-09-01T03:11:45.735Z,100.00
2022-09-01T03:14:15.487Z,100.00
2022-09-01T03:16:43.697Z,100.00
2022-09-01T03:19:12.296Z,100.00
2022-09-01T03:21:42.793Z,100.00
2022-09-01T03:24:15.005Z,100.00
2022-09-01T03:26:43.927Z,100.00
2022-09-01T03:29:12.503Z,100.00
2022-09-01T03:31:43.006Z,100.00
2022-09-01T03:34:12.753Z,100.00
2022-09-01T03:36:50.551Z,100.00
2022-09-01T03:39:19.476Z,100.00
2022-09-01T03:41:47.678Z,100.00
2022-09-01T03:44:16.517Z,100.00
2022-09-01T03:46:46.509Z,100.00
2022-09-01T03:49:15.854Z,100.00
2022-09-01T03:51:45.334Z,100.00
2022-09-01T03:54:14.418Z,100.00
2022-09-01T03:56:43.987Z,100.00
2022-09-01T03:59:17.399Z,100.00
2022-09-01T04:01:47.379Z,100.00
2022-09-01T04:04:15.823Z,100.00
2022-09-01T04:06:45.384Z,100.00
2022-09-01T04:09:13.747Z,100.00
2022-09-01T04:11:45.852Z,100.00
2022-09-01T04:14:15.087Z,100.00
2022-09-01T04:17:02.119Z,100.00
2022-09-01T04:19:37.104Z,100.00
2022-09-01T04:22:08.039Z,100.00
2022-09-01T04:24:36.305Z,100.00
2022-09-01T04:27:07.496Z,100.00
2022-09-01T04:29:36.138Z,100.00
2022-09-01T04:32:13.292Z,100.00
2022-09-01T04:34:43.077Z,100.00
2022-09-01T04:37:13.332Z,100.00
2022-09-01T04:39:52.470Z,100.00
2022-09-01T04:42:23.659Z,100.00
2022-09-01T04:44:53.832Z,100.00
2022-09-01T04:47:35.167Z,100.00
2022-09-01T04:50:14.503Z,100.00
2022-09-01T04:52:43.580Z,100.00
2022-09-01T04:55:18.012Z,100.00
2022-09-01T04:57:47.818Z,100.00
2022-09-01T05:00:22.755Z,100.00
2022-09-01T05:02:53.874Z,100.00
2022-09-01T05:05:24.553Z,100.00
2022-09-01T05:07:55.706Z,100.00
2022-09-01T05:10:30.101Z,100.00
2022-09-01T05:12:58.514Z,100.00
2022-09-01T05:15:26.608Z,100.00
2022-09-01T05:17:54.906Z,100.00
2022-09-01T05:20:25.269Z,100.00
2022-09-01T05:22:55.243Z,100.00
2022-09-01T05:25:23.374Z,100.00
2022-09-01T05:27:52.843Z,100.00
2022-09-01T05:30:21.097Z,100.00
2022-09-01T05:32:51.076Z,100.00
2022-09-01T05:35:19.325Z,100.00
2022-09-01T05:37:51.936Z,100.00
2022-09-01T05:40:20.313Z,100.00
2022-09-01T05:42:48.477Z,100.00
2022-09-01T05:45:24.062Z,100.00
2022-09-01T05:47:55.104Z,100.00
2022-09-01T05:50:23.187Z,100.00
2022-09-01T05:52:52.689Z,100.00
2022-09-01T05:55:23.285Z,100.00
2022-09-01T05:57:51.446Z,100.00
2022-09-01T06:00:20.874Z,100.00
2022-09-01T06:02:49.221Z,100.00
2022-09-01T06:05:17.714Z,100.00
2022-09-01T06:07:45.797Z,100.00
2022-09-01T06:10:16.386Z,100.00
2022-09-01T06:12:47.797Z,100.00
2022-09-01T06:15:18.786Z,100.00
2022-09-01T06:17:47.355Z,100.00
2022-09-01T06:20:18.368Z,100.00
2022-09-01T06:22:47.904Z,100.00
2022-09-01T06:25:18.787Z,100.00
2022-09-01T06:27:48.455Z,100.00
2022-09-01T06:30:23.801Z,100.00
2022-09-01T06:32:52.878Z,100.00
2022-09-01T06:35:21.970Z,100.00
2022-09-01T06:37:50.303Z,100.00
2022-09-01T06:40:19.914Z,100.00
2022-09-01T06:42:51.139Z,100.00
2022-09-01T06:45:21.366Z,100.00
2022-09-01T06:47:51.265Z,100.00
2022-09-01T06:56:13.288Z,100.00
2022-09-01T06:58:45.155Z,100.00
2022-09-01T07:01:15.595Z,100.00
2022-09-01T07:03:44.527Z,100.00
2022-09-01T07:06:59.100Z,100.00
2022-09-01T07:12:24.779Z,100.00
2022-09-01T07:17:30.861Z,100.00
2022-09-01T07:20:23.342Z,100.00
2022-09-01T07:26:00.716Z,100.00
2022-09-01T07:28:39.995Z,100.00
2022-09-01T07:39:55.403Z,100.00
2022-09-01T07:39:57.603Z,100.00
2022-09-01T07:45:30.855Z,100.00
2022-09-01T07:48:00.291Z,100.00
2022-09-01T07:53:19.921Z,100.00
2022-09-01T07:55:50.108Z,100.00
2022-09-01T07:58:19.053Z,100.00
2022-09-01T08:00:49.984Z,100.00
2022-09-01T08:03:19.758Z,100.00
2022-09-01T08:05:51.402Z,100.00
2022-09-01T08:08:20.981Z,100.00
2022-09-01T08:10:50.886Z,100.00
2022-09-01T08:13:22.249Z,100.00
2022-09-01T08:16:08.726Z,100.00
2022-09-01T08:18:54.080Z,100.00
2022-09-01T08:21:23.669Z,100.00
2022-09-01T08:23:52.620Z,100.00
2022-09-01T08:26:23.092Z,100.00
2022-09-01T08:28:55.294Z,100.00
2022-09-01T08:31:30.593Z,100.00
2022-09-01T08:34:00.301Z,100.00
2022-09-01T08:36:28.412Z,100.00
2022-09-01T08:38:56.573Z,100.00
2022-09-01T08:41:35.128Z,100.00
2022-09-01T08:44:12.434Z,100.00
2022-09-01T08:46:43.430Z,100.00
2022-09-01T08:49:26.082Z,100.00
2022-09-01T08:52:00.973Z,100.00
2022-09-01T08:55:16.258Z,100.00
2022-09-01T08:57:46.804Z,100.00
2022-09-01T09:00:18.442Z,100.00
2022-09-01T09:03:00.400Z,100.00
2022-09-01T09:05:35.162Z,100.00
2022-09-01T09:08:29.610Z,100.00
2022-09-01T09:11:04.055Z,100.00
2022-09-01T09:13:45.114Z,100.00
2022-09-01T09:16:17.505Z,100.00
2022-09-01T09:18:58.267Z,100.00
2022-09-01T09:21:30.359Z,100.00
2022-09-01T09:24:02.713Z,100.00
2022-09-01T09:26:47.827Z,100.00
2022-09-01T09:29:16.373Z,100.00
2022-09-01T09:31:50.577Z,100.00
2022-09-01T09:34:34.611Z,100.00
2022-09-01T09:37:18.144Z,100.00
2022-09-01T09:39:46.702Z,100.00
2022-09-01T09:42:16.324Z,100.00
2022-09-01T09:44:48.222Z,100.00
2022-09-01T09:47:46.582Z,100.00
2022-09-01T09:50:26.443Z,100.00
2022-09-01T09:53:11.734Z,100.00
2022-09-01T09:55:55.927Z,100.00
2022-09-01T09:58:26.910Z,100.00
2022-09-01T10:01:04.010Z,100.00
2022-09-01T10:03:43.512Z,100.00
2022-09-01T10:06:15.822Z,100.00
2022-09-01T10:08:48.253Z,100.00
2022-09-01T10:11:35.368Z,98.74
2022-09-01T10:14:07.765Z,98.44
2022-09-01T10:16:39.446Z,96.09
2022-09-01T10:19:12.738Z,91.10
2022-09-01T10:21:45.274Z,92.78
2022-09-01T10:24:25.760Z,91.19
2022-09-01T10:26:57.664Z,92.12
2022-09-01T10:29:27.357Z,89.64
2022-09-01T10:32:28.098Z,81.68
2022-09-01T10:34:47.243Z,77.01
2022-09-01T10:37:18.214Z,80.13
2022-09-01T10:40:13.107Z,82.76
2022-09-01T10:42:45.366Z,88.03
2022-09-01T10:45:31.553Z,74.45
2022-09-01T10:48:33.821Z,76.17
2022-09-01T10:51:38.900Z,77.16
2022-09-01T10:54:10.171Z,83.17
2022-09-01T10:56:44.445Z,86.25
2022-09-01T10:59:40.330Z,91.59
2022-09-01T11:02:26.060Z,100.00
2022-09-01T11:05:28.953Z,92.98
2022-09-01T11:08:01.655Z,94.31
2022-09-01T11:10:49.314Z,82.28
2022-09-01T11:13:29.830Z,70.93
2022-09-01T11:16:00.762Z,78.17
2022-09-01T11:18:31.531Z,73.79
2022-09-01T11:21:16.105Z,76.93
2022-09-01T11:23:46.400Z,78.60
2022-09-01T11:26:44.295Z,74.52
2022-09-01T11:29:51.762Z,77.10
2022-09-01T11:32:22.043Z,73.74
2022-09-01T11:34:51.147Z,72.40
2022-09-01T11:37:23.312Z,73.14
2022-09-01T11:39:53.050Z,78.84
2022-09-01T11:42:24.825Z,83.52
2022-09-01T11:44:59.445Z,86.24
2022-09-01T11:47:31.800Z,92.99
2022-09-01T11:50:02.414Z,94.21
2022-09-01T11:52:32.798Z,97.86
2022-09-01T11:55:01.745Z,97.28
2022-09-01T11:57:32.276Z,97.83
2022-09-01T12:00:03.742Z,94.61
2022-09-01T12:02:36.788Z,98.64
2022-09-01T12:05:26.119Z,100.00
2022-09-01T12:07:54.757Z,100.00
2022-09-01T12:10:28.960Z,100.00
2022-09-01T12:13:02.863Z,100.00
2022-09-01T12:15:35.244Z,100.00
2022-09-01T12:18:19.191Z,100.00
2022-09-01T12:23:26.201Z,100.00
2022-09-01T12:25:56.488Z,98.54
2022-09-01T12:28:26.321Z,100.00
2022-09-01T12:31:01.181Z,100.00
2022-09-01T12:33:30.254Z,96.21
2022-09-01T12:36:16.896Z,99.00
2022-09-01T12:38:45.441Z,90.57
2022-09-01T12:41:35.391Z,89.39
2022-09-01T12:44:30.361Z,87.47
2022-09-01T12:47:01.663Z,79.50
2022-09-01T12:49:38.300Z,82.77
2022-09-01T12:52:26.791Z,68.17
2022-09-01T12:54:57.214Z,71.95
2022-09-01T12:57:29.205Z,77.69
2022-09-01T13:00:18.342Z,77.84
2022-09-01T13:02:51.019Z,79.05
2022-09-01T13:05:28.441Z,84.60
2022-09-01T13:08:01.172Z,78.99
2022-09-01T13:10:33.038Z,72.14
2022-09-01T13:13:02.233Z,72.55
2022-09-01T13:15:31.290Z,73.53
2022-09-01T13:18:01.380Z,67.41
2022-09-01T13:20:29.751Z,73.58
2022-09-01T13:22:58.333Z,72.84
2022-09-01T13:25:29.665Z,76.42
2022-09-01T13:27:59.353Z,72.96
2022-09-01T13:30:28.648Z,79.98
2022-09-01T13:35:47.569Z,72.18
2022-09-01T13:38:17.023Z,75.49
2022-09-01T13:40:46.585Z,80.91
2022-09-01T13:43:15.434Z,75.34
2022-09-01T13:45:45.150Z,50.76
2022-09-01T13:48:16.259Z,56.97
2022-09-01T13:53:38.303Z,70.13
2022-09-01T13:56:07.542Z,68.70
2022-09-01T13:58:35.873Z,66.30
2022-09-01T14:01:05.226Z,78.43
2022-09-01T14:03:33.792Z,80.18
2022-09-01T14:06:03.551Z,61.47
2022-09-01T14:08:33.511Z,56.86
2022-09-01T14:11:01.964Z,56.28
2022-09-01T14:13:31.466Z,58.79
2022-09-01T14:16:00.327Z,54.15
2022-09-01T14:18:33.101Z,52.93
2022-09-01T14:21:02.826Z,50.86
2022-09-01T14:23:31.243Z,52.43
2022-09-01T14:26:00.123Z,54.67
2022-09-01T14:28:28.461Z,56.74
2022-09-01T14:33:27.584Z,52.98
2022-09-01T14:35:55.819Z,53.68
2022-09-01T14:38:26.061Z,56.42
2022-09-01T14:40:54.862Z,62.34
2022-09-01T14:43:23.422Z,62.87
2022-09-01T14:45:52.109Z,63.09
2022-09-01T14:48:21.586Z,59.23
2022-09-01T14:50:51.122Z,60.85
2022-09-01T14:53:19.955Z,59.95
2022-09-01T14:55:53.768Z,48.48
2022-09-01T14:58:24.643Z,41.28
2022-09-01T15:00:53.186Z,35.37
2022-09-01T15:03:22.955Z,36.53
2022-09-01T15:05:51.440Z,40.85
2022-09-01T15:08:20.103Z,43.77
2022-09-01T15:10:49.901Z,43.83
2022-09-01T15:13:18.339Z,45.88
2022-09-01T15:15:46.667Z,49.98
2022-09-01T15:18:15.120Z,45.83
2022-09-01T15:20:46.596Z,50.72
2022-09-01T15:23:15.944Z,54.80
2022-09-01T15:25:44.576Z,57.34
2022-09-01T15:28:14.564Z,60.50
2022-09-01T15:30:44.242Z,63.99
2022-09-01T15:33:15.915Z,63.96
2022-09-01T15:35:45.028Z,67.25
2022-09-01T15:38:17.846Z,69.03
2022-09-01T15:40:57.727Z,69.61
2022-09-01T15:43:28.644Z,71.52
2022-09-01T15:45:58.558Z,75.03
2022-09-01T15:48:28.126Z,71.98
2022-09-01T15:51:09.742Z,73.12
2022-09-01T15:53:38.063Z,74.00
2022-09-01T15:56:06.583Z,67.62
2022-09-01T15:58:57.549Z,69.17
2022-09-01T16:01:25.222Z,69.61
2022-09-01T16:03:54.043Z,73.31
2022-09-01T16:06:23.200Z,69.68
2022-09-01T16:08:54.531Z,68.45
2022-09-01T16:11:23.705Z,64.97
2022-09-01T16:13:54.098Z,62.27
2022-09-01T16:16:41.202Z,66.95
2022-09-01T16:19:19.773Z,65.48
2022-09-01T16:21:51.380Z,66.96
2022-09-01T16:24:19.740Z,68.36
2022-09-01T16:26:49.802Z,66.95
2022-09-01T16:29:32.135Z,64.62
2022-09-01T16:32:00.413Z,67.63
2022-09-01T16:34:29.203Z,66.24
2022-09-01T16:37:02.662Z,67.38
2022-09-01T16:39:36.429Z,67.97
2022-09-01T16:42:14.183Z,73.08
2022-09-01T16:44:52.803Z,70.68
2022-09-01T16:47:35.472Z,72.96
2022-09-01T16:50:12.675Z,77.70
2022-09-01T16:52:47.811Z,79.14
2022-09-01T16:55:23.325Z,80.27
2022-09-01T16:57:59.327Z,76.34
2022-09-01T17:00:38.568Z,75.78
2022-09-01T17:03:17.325Z,77.25
2022-09-01T17:05:51.592Z,76.65
2022-09-01T17:08:23.154Z,74.46
2022-09-01T17:10:55.217Z,75.57
2022-09-01T17:13:28.456Z,72.04
2022-09-01T17:16:04.155Z,73.82
2022-09-01T17:18:36.902Z,72.00
2022-09-01T17:21:11.683Z,70.91
2022-09-01T17:23:44.075Z,74.08
2022-09-01T17:26:19.294Z,73.12
2022-09-01T17:28:55.394Z,77.12
2022-09-01T17:31:38.105Z,78.39
2022-09-01T17:34:15.866Z,79.78
2022-09-01T17:36:52.073Z,79.11
2022-09-01T17:39:28.826Z,86.74
2022-09-01T17:42:01.070Z,82.98
2022-09-01T17:44:36.900Z,82.74
2022-09-01T17:47:12.985Z,85.46
2022-09-01T17:49:50.603Z,87.08
2022-09-01T17:52:24.443Z,86.03
2022-09-01T17:55:00.701Z,88.60
2022-09-01T17:57:35.300Z,91.66
2022-09-01T18:00:08.490Z,94.95
2022-09-01T18:03:07.971Z,94.52
2022-09-01T18:05:41.171Z,94.79
2022-09-01T18:08:29.429Z,98.49
2022-09-01T18:11:00.554Z,100.00
2022-09-01T18:13:52.286Z,100.00
2022-09-01T18:16:23.274Z,100.00
2022-09-01T18:18:54.144Z,100.00
2022-09-01T18:21:27.432Z,100.00
2022-09-01T18:24:00.493Z,100.00
2022-09-01T18:26:33.035Z,100.00
2022-09-01T18:29:01.934Z,100.00
2022-09-01T18:31:49.796Z,100.00
2022-09-01T18:34:28.124Z,100.00
2022-09-01T18:37:01.213Z,100.00
2022-09-01T18:39:34.614Z,100.00
2022-09-01T18:42:11.681Z,100.00
2022-09-01T18:44:50.110Z,100.00
2022-09-01T18:47:22.803Z,100.00
2022-09-01T18:50:01.884Z,100.00
2022-09-01T18:52:52.688Z,100.00
2022-09-01T18:55:25.043Z,100.00
2022-09-01T18:57:56.734Z,100.00
2022-09-01T19:00:30.619Z,100.00
2022-09-01T19:03:05.892Z,100.00
2022-09-01T19:05:48.143Z,100.00
2022-09-01T19:08:24.334Z,100.00
2022-09-01T19:11:04.503Z,100.00
2022-09-01T19:13:45.296Z,100.00
2022-09-01T19:16:21.830Z,100.00
2022-09-01T19:18:56.231Z,100.00
2022-09-01T19:21:30.536Z,100.00
2022-09-01T19:24:02.703Z,100.00
2022-09-01T19:26:34.631Z,100.00
2022-09-01T19:29:07.781Z,100.00
2022-09-01T19:31:40.330Z,100.00
2022-09-01T19:34:12.683Z,100.00
2022-09-01T19:36:45.675Z,100.00
2022-09-01T19:39:16.543Z,100.00
2022-09-01T19:41:47.304Z,100.00
2022-09-01T19:44:20.873Z,100.00
2022-09-01T19:46:51.182Z,100.00
2022-09-01T19:49:29.202Z,100.00
2022-09-01T19:52:05.803Z,100.00
2022-09-01T19:54:42.043Z,100.00
2022-09-01T19:57:15.283Z,100.00
2022-09-01T19:59:51.963Z,100.00
2022-09-01T20:02:26.992Z,100.00
2022-09-01T20:05:00.093Z,100.00
2022-09-01T20:07:33.272Z,100.00
2022-09-01T20:10:08.464Z,100.00
2022-09-01T20:12:41.282Z,100.00
2022-09-01T20:15:12.335Z,100.00
2022-09-01T20:17:44.490Z,100.00
2022-09-01T20:20:24.265Z,100.00
2022-09-01T20:23:01.932Z,100.00
2022-09-01T20:25:39.463Z,100.00
2022-09-01T20:28:16.134Z,100.00
2022-09-01T20:30:51.266Z,100.00
2022-09-01T20:33:24.102Z,100.00
2022-09-01T20:35:56.166Z,100.00
2022-09-01T20:38:45.521Z,100.00
2022-09-01T20:41:19.302Z,100.00
2022-09-01T20:43:51.633Z,100.00
2022-09-01T20:46:20.699Z,100.00
2022-09-01T20:48:49.740Z,100.00
2022-09-01T20:51:22.108Z,100.00
2022-09-01T20:54:16.964Z,100.00
2022-09-01T20:56:51.015Z,100.00
2022-09-01T20:59:26.149Z,100.00
2022-09-01T21:02:07.100Z,100.00
2022-09-01T21:04:42.783Z,100.00
2022-09-01T21:07:15.434Z,100.00
2022-09-01T21:09:55.551Z,100.00
2022-09-01T21:12:32.804Z,100.00
2022-09-01T21:15:12.101Z,100.00
2022-09-01T21:17:44.904Z,100.00
2022-09-01T21:23:12.045Z,100.00
2022-09-01T21:25:42.032Z,100.00
2022-09-01T21:28:10.433Z,100.00
2022-09-01T21:30:38.991Z,100.00
2022-09-01T21:33:07.374Z,100.00
2022-09-01T21:35:35.814Z,100.00
2022-09-01T21:38:04.205Z,100.00
2022-09-01T21:40:32.878Z,100.00
2022-09-01T21:43:05.574Z,100.00
2022-09-01T21:45:34.843Z,100.00
2022-09-01T21:48:03.724Z,100.00
2022-09-01T21:50:32.154Z,100.00
2022-09-01T21:53:00.665Z,100.00
2022-09-01T21:55:29.695Z,100.00
2022-09-01T21:58:00.911Z,100.00
2022-09-01T22:00:33.302Z,100.00
2022-09-01T22:03:02.024Z,100.00
2022-09-01T22:05:33.041Z,100.00
2022-09-01T22:08:01.737Z,100.00
2022-09-01T22:10:31.827Z,100.00
2022-09-01T22:13:03.638Z,100.00
2022-09-01T22:15:33.594Z,100.00
2022-09-01T22:18:02.054Z,100.00
2022-09-01T22:20:32.213Z,100.00
2022-09-01T22:23:02.266Z,100.00
2022-09-01T22:25:31.858Z,100.00
2022-09-01T22:28:00.645Z,100.00
2022-09-01T22:30:29.138Z,100.00
2022-09-01T22:32:59.965Z,100.00
2022-09-01T22:35:28.553Z,100.00
2022-09-01T22:37:56.955Z,100.00
2022-09-01T22:40:25.442Z,100.00
2022-09-01T22:42:54.055Z,100.00
2022-09-01T22:45:22.677Z,100.00
2022-09-01T22:47:51.145Z,100.00
2022-09-01T22:50:21.175Z,100.00
2022-09-01T22:52:49.533Z,100.00
2022-09-01T22:55:18.194Z,100.00
2022-09-01T22:57:46.623Z,100.00
2022-09-01T23:00:15.795Z,100.00
2022-09-01T23:02:45.115Z,100.00
2022-09-01T23:05:13.631Z,100.00
2022-09-01T23:07:43.614Z,100.00
2022-09-01T23:10:12.584Z,100.00
2022-09-01T23:12:40.984Z,100.00
2022-09-01T23:15:11.141Z,100.00
2022-09-01T23:17:40.018Z,100.00
2022-09-01T23:20:13.275Z,100.00
2022-09-01T23:22:43.924Z,100.00
2022-09-01T23:25:13.464Z,100.00
2022-09-01T23:27:41.925Z,100.00
2022-09-01T23:30:12.995Z,100.00
2022-09-01T23:32:41.510Z,100.00
2022-09-01T23:35:10.876Z,100.00
2022-09-01T23:37:39.316Z,100.00
2022-09-01T23:40:11.085Z,100.00
2022-09-01T23:42:41.618Z,100.00
2022-09-01T23:45:11.164Z,100.00
2022-09-01T23:47:39.554Z,100.00
2022-09-01T23:50:09.334Z,100.00
2022-09-01T23:52:37.865Z,100.00
2022-09-01T23:55:07.747Z,100.00
2022-09-01T23:57:37.543Z,100.00
